createdAt,value
2018-08-24T00:01:12.159Z,1.93
2018-08-24T00:03:39.297Z,2.90
2018-08-24T00:06:06.442Z,2.03
2018-08-24T00:08:34.796Z,3.23
2018-08-24T00:11:01.953Z,2.33
2018-08-24T00:13:29.116Z,2.53
2018-08-24T00:15:56.259Z,2.50
2018-08-24T00:18:23.458Z,2.80
2018-08-24T00:20:54.634Z,2.07
2018-08-24T00:23:21.750Z,2.37
2018-08-24T00:25:48.875Z,2.83
2018-08-24T00:28:16.000Z,3.20
2018-08-24T00:30:43.120Z,2.90
2018-08-24T00:33:10.247Z,2.27
2018-08-24T00:35:37.392Z,1.93
2018-08-24T00:38:04.508Z,1.83
2018-08-24T00:40:31.634Z,2.47
2018-08-24T00:42:58.820Z,2.23
2018-08-24T00:45:25.966Z,1.90
2018-08-24T00:47:53.099Z,2.70
2018-08-24T00:50:20.258Z,2.10
2018-08-24T00:52:47.409Z,2.43
2018-08-24T00:55:14.565Z,2.30
2018-08-24T00:57:41.705Z,2.50
2018-08-24T01:00:08.858Z,2.10
2018-08-24T01:02:36.060Z,2.50
2018-08-24T01:05:03.241Z,2.90
2018-08-24T01:07:35.002Z,2.00
2018-08-24T01:10:08.781Z,2.10
2018-08-24T01:12:35.979Z,2.30
2018-08-24T01:15:06.442Z,2.60
2018-08-24T01:17:39.406Z,2.57
2018-08-24T01:20:06.538Z,3.10
2018-08-24T01:22:33.686Z,3.03
2018-08-24T01:25:00.803Z,2.70
2018-08-24T01:27:33.820Z,3.10
2018-08-24T01:30:01.162Z,3.93
2018-08-24T01:32:28.277Z,3.87
2018-08-24T01:34:55.388Z,4.43
2018-08-24T01:37:22.845Z,5.67
2018-08-24T01:39:49.975Z,3.83
2018-08-24T01:42:17.095Z,4.07
2018-08-24T01:44:44.225Z,5.50
2018-08-24T01:47:11.360Z,5.10
2018-08-24T01:49:38.828Z,5.57
2018-08-24T01:52:05.961Z,5.00
2018-08-24T01:54:33.915Z,3.90
2018-08-24T01:57:01.045Z,5.60
2018-08-24T01:59:28.157Z,5.20
2018-08-24T02:01:55.260Z,4.97
2018-08-24T02:04:22.394Z,6.03
2018-08-24T02:06:49.549Z,5.73
2018-08-24T02:09:20.849Z,5.20
2018-08-24T02:11:47.988Z,4.53
2018-08-24T02:14:20.993Z,3.80
2018-08-24T02:16:48.129Z,5.10
2018-08-24T02:19:16.358Z,4.60
2018-08-24T02:21:49.282Z,4.27
2018-08-24T02:24:16.714Z,3.67
2018-08-24T02:26:44.646Z,3.97
2018-08-24T02:29:11.802Z,3.77
2018-08-24T02:31:44.869Z,3.87
2018-08-24T02:34:12.165Z,3.27
2018-08-24T02:36:39.326Z,4.03
2018-08-24T02:39:09.071Z,3.73
2018-08-24T02:41:36.195Z,4.20
2018-08-24T02:44:03.289Z,2.97
2018-08-24T02:46:30.424Z,3.77
2018-08-24T02:48:57.527Z,3.17
2018-08-24T02:51:24.644Z,3.63
2018-08-24T02:53:51.779Z,4.10
2018-08-24T02:56:18.913Z,3.20
2018-08-24T02:58:46.089Z,3.67
2018-08-24T03:01:13.225Z,3.47
2018-08-24T03:03:40.322Z,3.53
2018-08-24T03:06:07.488Z,4.30
2018-08-24T03:08:34.939Z,2.70
2018-08-24T03:11:02.067Z,3.03
2018-08-24T03:13:29.200Z,2.83
2018-08-24T03:15:56.362Z,2.73
2018-08-24T03:18:23.500Z,3.33
2018-08-24T03:20:54.706Z,2.13
2018-08-24T03:23:21.876Z,2.30
2018-08-24T03:25:48.997Z,2.50
2018-08-24T03:28:16.483Z,2.60
2018-08-24T03:30:43.613Z,2.27
2018-08-24T03:33:10.693Z,2.83
2018-08-24T03:35:37.848Z,2.00
2018-08-24T03:38:04.948Z,2.27
2018-08-24T03:40:32.046Z,1.90
2018-08-24T03:42:59.499Z,1.93
2018-08-24T03:45:26.615Z,2.00
2018-08-24T03:47:53.725Z,2.00
2018-08-24T03:50:20.849Z,1.70
2018-08-24T03:52:48.040Z,2.17
2018-08-24T03:55:15.117Z,2.00
2018-08-24T03:57:42.209Z,3.83
2018-08-24T04:00:13.906Z,3.67
2018-08-24T04:02:41.004Z,4.07
2018-08-24T04:05:08.397Z,3.20
2018-08-24T04:07:35.533Z,2.60
2018-08-24T04:10:02.636Z,2.90
2018-08-24T04:12:29.737Z,2.10
2018-08-24T04:14:56.849Z,2.10
2018-08-24T04:17:29.768Z,2.40
2018-08-24T04:19:56.878Z,2.07
2018-08-24T04:22:23.951Z,1.40
2018-08-24T04:24:51.373Z,1.60
2018-08-24T04:27:18.442Z,1.63
2018-08-24T04:29:45.524Z,2.20
2018-08-24T04:32:12.628Z,1.93
2018-08-24T04:34:39.712Z,2.57
2018-08-24T04:37:06.797Z,2.10
2018-08-24T04:39:34.203Z,3.53
2018-08-24T04:42:01.280Z,4.07
2018-08-24T04:44:28.364Z,3.07
2018-08-24T04:46:57.521Z,4.40
2018-08-24T04:49:24.615Z,4.43
2018-08-24T04:51:51.714Z,3.37
2018-08-24T04:54:19.084Z,4.37
2018-08-24T04:56:46.165Z,3.77
2018-08-24T04:59:13.238Z,3.67
2018-08-24T05:01:40.330Z,2.97
2018-08-24T05:04:07.420Z,3.67
2018-08-24T05:06:34.510Z,4.20
2018-08-24T05:09:03.137Z,2.73
2018-08-24T05:11:30.247Z,2.87
2018-08-24T05:13:57.333Z,3.60
2018-08-24T05:16:24.429Z,2.20
2018-08-24T05:18:51.510Z,2.37
2018-08-24T05:21:18.638Z,2.30
2018-08-24T05:23:45.708Z,1.87
2018-08-24T05:26:12.793Z,2.70
2018-08-24T05:28:39.869Z,2.00
2018-08-24T05:31:06.949Z,1.60
2018-08-24T05:33:34.041Z,2.13
2018-08-24T05:36:01.112Z,1.57
2018-08-24T05:38:28.208Z,2.07
2018-08-24T05:40:55.968Z,1.73
2018-08-24T05:43:23.061Z,1.97
2018-08-24T05:45:50.149Z,2.07
2018-08-24T05:48:17.245Z,1.90
2018-08-24T05:50:44.341Z,1.30
2018-08-24T05:53:11.457Z,1.17
2018-08-24T05:55:39.387Z,1.70
2018-08-24T05:58:07.069Z,1.87
2018-08-24T06:00:36.858Z,1.60
2018-08-24T06:03:04.449Z,1.60
2018-08-24T06:05:31.530Z,1.70
2018-08-24T06:07:58.648Z,1.27
2018-08-24T06:10:25.839Z,1.73
2018-08-24T06:12:52.975Z,1.23
2018-08-24T06:15:20.065Z,1.57
2018-08-24T06:17:51.070Z,1.60
2018-08-24T06:20:19.218Z,1.17
2018-08-24T06:22:46.304Z,1.97
2018-08-24T06:25:13.844Z,1.63
2018-08-24T06:27:40.960Z,1.63
2018-08-24T06:30:08.346Z,1.63
2018-08-24T06:32:35.953Z,1.50
2018-08-24T06:35:03.045Z,1.47
2018-08-24T06:37:30.132Z,2.00
2018-08-24T06:39:57.229Z,1.40
2018-08-24T06:42:24.313Z,1.57
2018-08-24T06:44:51.389Z,1.90
2018-08-24T06:47:18.528Z,1.37
2018-08-24T06:49:45.579Z,1.53
2018-08-24T06:52:12.657Z,2.03
2018-08-24T06:54:39.741Z,1.30
2018-08-24T06:57:06.842Z,1.83
2018-08-24T06:59:33.985Z,1.30
2018-08-24T07:02:01.029Z,1.40
2018-08-24T07:04:28.116Z,1.20
2018-08-24T07:06:55.226Z,1.03
2018-08-24T07:09:22.301Z,1.40
2018-08-24T07:11:53.401Z,0.83
2018-08-24T07:14:20.549Z,1.30
2018-08-24T07:16:47.704Z,1.47
2018-08-24T07:19:15.069Z,1.27
2018-08-24T07:21:42.149Z,0.97
2018-08-24T07:24:09.246Z,1.10
2018-08-24T07:26:36.356Z,2.70
2018-08-24T07:29:03.454Z,1.33
2018-08-24T07:31:30.542Z,1.10
2018-08-24T07:33:57.637Z,1.33
2018-08-24T07:36:24.729Z,1.60
2018-08-24T07:38:51.827Z,0.90
2018-08-24T07:41:18.924Z,1.23
2018-08-24T07:43:46.064Z,0.93
2018-08-24T07:46:13.158Z,1.77
2018-08-24T07:48:40.237Z,0.90
2018-08-24T07:51:07.330Z,1.17
2018-08-24T07:53:34.418Z,0.97
2018-08-24T07:56:01.567Z,0.70
2018-08-24T07:58:28.681Z,1.10
2018-08-24T08:00:55.789Z,1.10
2018-08-24T08:03:22.910Z,1.20
2018-08-24T08:05:49.990Z,0.83
2018-08-24T08:08:17.081Z,1.20
2018-08-24T08:10:44.183Z,0.77
2018-08-24T08:13:11.743Z,1.03
2018-08-24T08:15:39.302Z,0.90
2018-08-24T08:18:06.454Z,1.10
2018-08-24T08:20:33.514Z,2.07
2018-08-24T08:23:00.622Z,1.90
2018-08-24T08:25:27.722Z,1.00
2018-08-24T08:27:54.836Z,1.07
2018-08-24T08:30:21.934Z,0.97
2018-08-24T08:32:49.085Z,0.87
2018-08-24T08:35:16.178Z,1.20
2018-08-24T08:37:43.254Z,0.90
2018-08-24T08:40:10.374Z,0.80
2018-08-24T08:42:37.465Z,0.90
2018-08-24T08:45:04.547Z,1.10
2018-08-24T08:47:31.652Z,0.60
2018-08-24T08:49:58.746Z,1.30
2018-08-24T08:52:25.822Z,1.50
2018-08-24T08:54:52.917Z,0.93
2018-08-24T08:57:20.131Z,1.10
2018-08-24T08:59:47.278Z,0.87
2018-08-24T09:02:14.369Z,0.97
2018-08-24T09:04:41.701Z,1.07
2018-08-24T09:07:08.957Z,0.90
2018-08-24T09:09:36.333Z,1.40
2018-08-24T09:12:03.414Z,1.00
2018-08-24T09:14:30.484Z,1.03
2018-08-24T09:16:57.582Z,0.93
2018-08-24T09:19:30.374Z,1.00
2018-08-24T09:22:03.337Z,0.90
2018-08-24T09:24:36.191Z,1.17
2018-08-24T09:27:09.097Z,1.13
2018-08-24T09:29:36.189Z,1.07
2018-08-24T09:32:03.364Z,0.90
2018-08-24T09:34:30.459Z,0.93
2018-08-24T09:37:03.884Z,0.60
2018-08-24T09:39:31.209Z,0.93
2018-08-24T09:42:00.044Z,1.10
2018-08-24T09:44:27.306Z,1.00
2018-08-24T09:47:00.074Z,0.90
2018-08-24T09:49:29.493Z,1.37
2018-08-24T09:51:56.582Z,1.00
2018-08-24T09:54:23.666Z,1.40
2018-08-24T09:56:50.805Z,0.87
2018-08-24T09:59:17.838Z,1.10
2018-08-24T10:01:50.625Z,1.00
2018-08-24T10:04:23.517Z,0.83
2018-08-24T10:06:56.363Z,0.97
2018-08-24T10:09:23.453Z,1.23
2018-08-24T10:11:50.537Z,1.10
2018-08-24T10:14:17.623Z,1.20
2018-08-24T10:16:44.701Z,0.90
2018-08-24T10:19:12.982Z,1.10
2018-08-24T10:21:44.249Z,1.20
2018-08-24T10:24:16.017Z,1.20
2018-08-24T10:26:43.283Z,0.77
2018-08-24T10:29:10.449Z,0.90
2018-08-24T10:31:37.609Z,0.93
2018-08-24T10:34:05.149Z,0.87
2018-08-24T10:36:32.254Z,0.93
2018-08-24T10:38:59.384Z,1.23
2018-08-24T10:41:26.428Z,0.77
2018-08-24T10:43:53.505Z,0.87
2018-08-24T10:46:20.609Z,1.23
2018-08-24T10:48:47.835Z,1.10
2018-08-24T10:51:14.929Z,0.90
2018-08-24T10:53:42.038Z,1.83
2018-08-24T10:56:09.205Z,1.07
2018-08-24T10:58:36.217Z,0.90
2018-08-24T11:01:03.301Z,1.10
2018-08-24T11:03:30.407Z,0.87
2018-08-24T11:05:57.538Z,1.03
2018-08-24T11:08:24.633Z,1.20
2018-08-24T11:10:51.737Z,0.90
2018-08-24T11:13:18.833Z,1.47
2018-08-24T11:15:48.699Z,0.80
2018-08-24T11:18:16.305Z,0.80
2018-08-24T11:20:43.581Z,0.80
2018-08-24T11:23:10.724Z,1.23
2018-08-24T11:25:38.169Z,0.80
2018-08-24T11:28:05.278Z,0.97
2018-08-24T11:30:32.372Z,0.90
2018-08-24T11:32:59.469Z,1.17
2018-08-24T11:35:26.663Z,0.50
2018-08-24T11:37:53.798Z,0.80
2018-08-24T11:40:23.041Z,0.73
2018-08-24T11:42:50.249Z,1.10
2018-08-24T11:45:17.376Z,0.50
2018-08-24T11:47:44.528Z,1.00
2018-08-24T11:50:11.601Z,0.77
2018-08-24T11:52:38.690Z,1.13
2018-08-24T11:55:05.801Z,0.70
2018-08-24T11:57:32.953Z,1.70
2018-08-24T12:00:00.038Z,1.63
2018-08-24T12:02:27.160Z,0.87
2018-08-24T12:04:54.250Z,0.73
2018-08-24T12:07:21.322Z,0.80
2018-08-24T12:09:48.422Z,0.67
2018-08-24T12:12:15.636Z,1.23
2018-08-24T12:14:42.627Z,1.10
2018-08-24T12:17:11.301Z,0.80
2018-08-24T12:19:38.378Z,0.70
2018-08-24T12:22:05.466Z,1.47
2018-08-24T12:24:32.618Z,0.50
2018-08-24T12:26:59.687Z,0.70
2018-08-24T12:29:26.762Z,1.07
2018-08-24T12:31:53.893Z,0.93
2018-08-24T12:34:20.990Z,0.67
2018-08-24T12:36:48.087Z,0.97
2018-08-24T12:39:15.162Z,1.20
2018-08-24T12:41:42.249Z,0.50
2018-08-24T12:44:09.334Z,1.03
2018-08-24T12:46:36.429Z,0.80
2018-08-24T12:49:03.709Z,0.67
2018-08-24T12:51:30.794Z,0.83
2018-08-24T12:53:57.894Z,1.13
2018-08-24T12:56:24.990Z,0.77
2018-08-24T12:58:52.506Z,0.93
2018-08-24T13:01:20.073Z,0.73
2018-08-24T13:03:47.366Z,0.97
2018-08-24T13:06:14.458Z,0.90
2018-08-24T13:08:42.110Z,0.90
2018-08-24T13:11:09.234Z,0.53
2018-08-24T13:13:36.321Z,0.87
2018-08-24T13:16:03.554Z,0.57
2018-08-24T13:18:30.659Z,0.80
2018-08-24T13:20:57.726Z,0.80
2018-08-24T13:23:24.985Z,0.60
2018-08-24T13:25:52.060Z,0.90
2018-08-24T13:28:19.297Z,0.70
2018-08-24T13:30:46.657Z,0.73
2018-08-24T13:33:19.773Z,1.03
2018-08-24T13:35:46.909Z,0.83
2018-08-24T13:38:13.994Z,0.90
2018-08-24T13:40:41.074Z,0.60
2018-08-24T13:43:09.137Z,0.90
2018-08-24T13:45:36.250Z,0.90
2018-08-24T13:48:03.799Z,0.90
2018-08-24T13:50:30.937Z,1.00
2018-08-24T13:52:58.053Z,1.10
2018-08-24T13:55:25.167Z,0.77
2018-08-24T13:57:52.307Z,0.70
2018-08-24T14:00:19.402Z,0.70
2018-08-24T14:02:46.487Z,0.87
2018-08-24T14:05:13.592Z,0.80
2018-08-24T14:07:40.659Z,0.50
2018-08-24T14:10:07.746Z,0.60
2018-08-24T14:12:34.825Z,1.43
2018-08-24T14:15:02.010Z,0.77
2018-08-24T14:17:29.108Z,0.60
2018-08-24T14:19:56.242Z,0.90
2018-08-24T14:22:23.569Z,0.60
2018-08-24T14:24:50.661Z,0.80
2018-08-24T14:27:17.904Z,0.70
2018-08-24T14:29:45.012Z,0.53
2018-08-24T14:32:12.142Z,0.50
2018-08-24T14:34:39.230Z,0.97
2018-08-24T14:37:06.307Z,0.90
2018-08-24T14:39:33.398Z,1.17
2018-08-24T14:42:00.482Z,0.80
2018-08-24T14:44:27.595Z,0.70
2018-08-24T14:46:54.818Z,0.57
2018-08-24T14:49:21.950Z,0.43
2018-08-24T14:51:49.046Z,0.50
2018-08-24T14:54:16.169Z,0.63
2018-08-24T14:56:43.449Z,0.77
2018-08-24T14:59:10.547Z,0.60
2018-08-24T15:01:37.641Z,0.80
2018-08-24T15:04:04.722Z,0.80
2018-08-24T15:06:31.833Z,1.17
2018-08-24T15:08:58.943Z,0.90
2018-08-24T15:11:26.016Z,1.20
2018-08-24T15:13:53.095Z,0.60
2018-08-24T15:16:20.205Z,0.93
2018-08-24T15:18:47.486Z,1.07
2018-08-24T15:21:14.614Z,0.80
2018-08-24T15:23:41.737Z,0.63
2018-08-24T15:26:08.827Z,0.50
2018-08-24T15:28:35.960Z,0.90
2018-08-24T15:31:03.058Z,0.60
2018-08-24T15:33:30.149Z,1.03
2018-08-24T15:35:57.492Z,0.80
2018-08-24T15:38:24.573Z,0.60
2018-08-24T15:40:51.658Z,1.03
2018-08-24T15:43:18.733Z,0.60
2018-08-24T15:45:45.809Z,0.70
2018-08-24T15:48:12.877Z,0.90
2018-08-24T15:50:39.947Z,0.90
2018-08-24T15:53:07.054Z,0.70
2018-08-24T15:55:34.177Z,1.00
2018-08-24T15:58:01.258Z,0.73
2018-08-24T16:00:28.377Z,1.10
2018-08-24T16:02:55.477Z,1.23
2018-08-24T16:05:22.575Z,0.77
2018-08-24T16:07:49.677Z,1.77
2018-08-24T16:10:16.774Z,0.83
2018-08-24T16:12:43.890Z,1.53
2018-08-24T16:15:10.993Z,0.97
2018-08-24T16:17:38.101Z,1.07
2018-08-24T16:20:05.201Z,1.27
2018-08-24T16:22:32.341Z,1.87
2018-08-24T16:24:59.427Z,1.30
2018-08-24T16:27:26.536Z,0.63
2018-08-24T16:29:55.361Z,1.07
2018-08-24T16:32:22.742Z,0.70
2018-08-24T16:34:49.925Z,0.67
2018-08-24T16:37:17.035Z,0.63
2018-08-24T16:39:44.134Z,0.83
2018-08-24T16:42:11.249Z,0.63
2018-08-24T16:47:10.486Z,0.80
2018-08-24T16:49:37.565Z,1.17
2018-08-24T16:52:04.705Z,0.70
2018-08-24T16:54:31.782Z,0.73
2018-08-24T16:56:58.877Z,0.60
2018-08-24T16:59:25.970Z,1.10
2018-08-24T17:01:53.046Z,0.60
2018-08-24T17:04:20.122Z,1.00
2018-08-24T17:06:47.206Z,2.27
2018-08-24T17:09:14.296Z,1.00
2018-08-24T17:11:41.392Z,1.17
2018-08-24T17:14:08.482Z,0.80
2018-08-24T17:16:35.654Z,0.83
2018-08-24T17:19:02.871Z,0.73
2018-08-24T17:21:29.958Z,0.70
2018-08-24T17:23:57.038Z,0.80
2018-08-24T17:26:24.118Z,1.00
2018-08-24T17:28:53.356Z,0.90
2018-08-24T17:31:20.442Z,0.73
2018-08-24T17:33:49.614Z,0.70
2018-08-24T17:36:16.690Z,0.70
2018-08-24T17:38:44.209Z,1.07
2018-08-24T17:41:11.553Z,1.03
2018-08-24T17:43:38.645Z,1.00
2018-08-24T17:46:05.714Z,0.57
2018-08-24T17:48:32.841Z,0.97
2018-08-24T17:50:59.923Z,0.80
2018-08-24T17:53:27.016Z,0.63
2018-08-24T17:55:54.114Z,0.70
2018-08-24T17:58:21.200Z,0.73
2018-08-24T18:00:48.285Z,0.70
2018-08-24T18:03:15.372Z,0.90
2018-08-24T18:05:42.451Z,1.03
2018-08-24T18:08:09.532Z,0.70
2018-08-24T18:10:36.629Z,0.60
2018-08-24T18:13:03.897Z,0.60
2018-08-24T18:15:30.996Z,0.70
2018-08-24T18:17:58.086Z,0.80
2018-08-24T18:20:25.185Z,0.63
2018-08-24T18:22:52.278Z,0.90
2018-08-24T18:25:19.373Z,1.03
2018-08-24T18:27:46.461Z,1.43
2018-08-24T18:30:13.648Z,1.00
2018-08-24T18:32:40.710Z,1.10
2018-08-24T18:35:07.797Z,1.07
2018-08-24T18:37:34.883Z,1.00
2018-08-24T18:40:01.994Z,0.87
2018-08-24T18:42:29.084Z,1.20
2018-08-24T18:44:56.234Z,1.00
2018-08-24T18:47:23.306Z,1.10
2018-08-24T18:49:50.382Z,0.73
2018-08-24T18:52:17.469Z,0.90
2018-08-24T18:54:44.566Z,0.80
2018-08-24T18:57:11.658Z,0.83
2018-08-24T18:59:38.750Z,0.97
2018-08-24T19:02:05.838Z,2.43
2018-08-24T19:04:32.955Z,0.90
2018-08-24T19:07:00.180Z,1.40
2018-08-24T19:09:27.301Z,1.00
2018-08-24T19:12:00.023Z,1.13
2018-08-24T19:14:27.136Z,1.00
2018-08-24T19:16:54.269Z,1.30
2018-08-24T19:19:27.155Z,1.60
2018-08-24T19:21:58.288Z,1.10
2018-08-24T19:24:25.399Z,0.97
2018-08-24T19:26:52.540Z,1.10
2018-08-24T19:29:25.481Z,0.67
2018-08-24T19:31:52.603Z,0.80
2018-08-24T19:34:19.718Z,2.20
2018-08-24T19:36:46.881Z,1.10
2018-08-24T19:39:14.419Z,0.70
2018-08-24T19:41:47.186Z,1.07
2018-08-24T19:44:14.517Z,0.67
2018-08-24T19:46:41.704Z,1.03
2018-08-24T19:49:14.638Z,1.00
2018-08-24T19:51:42.041Z,1.03
2018-08-24T19:54:09.199Z,1.00
2018-08-24T19:56:36.600Z,0.90
2018-08-24T19:59:08.562Z,1.03
2018-08-24T20:01:35.721Z,1.07
2018-08-24T20:04:03.858Z,0.70
2018-08-24T20:06:36.817Z,1.00
2018-08-24T20:09:13.412Z,1.10
2018-08-24T20:11:40.614Z,0.70
2018-08-24T20:14:07.766Z,0.67
2018-08-24T20:16:40.934Z,1.10
2018-08-24T20:19:08.103Z,0.67
2018-08-24T20:21:35.266Z,0.77
2018-08-24T20:24:02.436Z,0.90
2018-08-24T20:26:29.531Z,1.10
2018-08-24T20:28:57.010Z,1.03
2018-08-24T20:31:24.165Z,1.40
2018-08-24T20:33:51.398Z,0.97
2018-08-24T20:36:18.442Z,0.83
2018-08-24T20:38:45.565Z,0.80
2018-08-24T20:41:12.711Z,1.00
2018-08-24T20:43:39.865Z,0.90
2018-08-24T20:46:07.169Z,0.90
2018-08-24T20:48:34.286Z,1.17
2018-08-24T20:51:01.486Z,1.13
2018-08-24T20:53:28.692Z,1.00
2018-08-24T20:55:55.839Z,0.90
2018-08-24T20:58:22.984Z,0.90
2018-08-24T21:00:50.124Z,1.00
2018-08-24T21:03:17.267Z,0.80
2018-08-24T21:05:44.508Z,0.80
2018-08-24T21:08:11.567Z,1.50
2018-08-24T21:10:38.682Z,1.10
2018-08-24T21:13:07.878Z,1.00
2018-08-24T21:15:35.018Z,1.17
2018-08-24T21:18:02.170Z,0.80
2018-08-24T21:20:29.307Z,0.77
2018-08-24T21:22:56.479Z,0.93
2018-08-24T21:25:23.609Z,1.10
2018-08-24T21:27:50.739Z,1.40
2018-08-24T21:30:17.902Z,1.43
2018-08-24T21:32:45.035Z,1.20
2018-08-24T21:35:12.172Z,1.03
2018-08-24T21:37:39.289Z,1.00
2018-08-24T21:40:06.406Z,1.33
2018-08-24T21:42:33.535Z,1.03
2018-08-24T21:45:00.678Z,1.37
2018-08-24T21:47:27.806Z,0.77
2018-08-24T21:49:54.930Z,0.77
2018-08-24T21:52:22.101Z,1.07
2018-08-24T21:54:49.266Z,1.00
2018-08-24T21:57:16.430Z,0.70
2018-08-24T21:59:43.577Z,0.93
2018-08-24T22:02:10.882Z,0.70
2018-08-24T22:04:38.049Z,1.03
2018-08-24T22:07:05.173Z,0.90
2018-08-24T22:09:32.630Z,0.90
2018-08-24T22:11:59.801Z,1.10
2018-08-24T22:14:26.927Z,0.90
2018-08-24T22:16:54.074Z,0.80
2018-08-24T22:19:21.183Z,1.13
2018-08-24T22:21:48.374Z,0.80
2018-08-24T22:24:15.557Z,1.27
2018-08-24T22:26:42.909Z,0.80
2018-08-24T22:29:10.104Z,0.97
2018-08-24T22:38:39.230Z,0.77
2018-08-24T22:41:06.344Z,0.90
2018-08-24T22:43:34.773Z,0.60
2018-08-24T22:46:02.087Z,0.70
2018-08-24T22:48:29.401Z,0.73
2018-08-24T22:50:56.542Z,0.77
2018-08-24T22:53:23.689Z,0.80
2018-08-24T22:55:50.831Z,0.90
2018-08-24T22:58:17.947Z,0.80
2018-08-24T23:00:45.067Z,0.77
2018-08-24T23:03:12.210Z,0.70
2018-08-24T23:05:39.490Z,0.97
2018-08-24T23:08:06.957Z,1.43
2018-08-24T23:10:34.087Z,0.80
2018-08-24T23:13:01.197Z,1.17
2018-08-24T23:15:28.321Z,1.23
2018-08-24T23:17:55.450Z,0.90
2018-08-24T23:20:22.573Z,0.90
2018-08-24T23:22:49.706Z,1.00
2018-08-24T23:25:16.855Z,1.10
2018-08-24T23:27:43.970Z,0.70
2018-08-24T23:30:11.706Z,1.03
2018-08-24T23:32:39.090Z,1.03
2018-08-24T23:35:06.209Z,0.90
2018-08-24T23:37:33.347Z,0.73
2018-08-24T23:40:00.718Z,0.63
2018-08-24T23:42:28.178Z,0.93
2018-08-24T23:44:55.329Z,0.70
2018-08-24T23:47:22.461Z,0.80
2018-08-24T23:49:49.598Z,0.50
2018-08-24T23:52:16.737Z,0.97
2018-08-24T23:54:43.885Z,1.10
2018-08-24T23:57:11.037Z,0.83
2018-08-24T23:59:38.158Z,1.10
